Time;durP1;ratioP1;P1;durP2;ratioP2;P2;SDS_P1;SDS_P2;PMS_P1;PMS_P2;Temp;Humidity;BMP_temperature;BMP_pressure;BME280_temperature;BME280_humidity;BME280_pressure;Samples;Min_cycle;Max_cycle;Signal;HPM_P1;HPM_P2
2023/09/24 00:00:59;;;;;;;0.30;0.30;;;9.70;99.90;;;;;;5044057;28;20056;-71
2023/09/24 00:03:25;;;;;;;0.30;0.30;;;9.70;99.90;;;;;;5068261;28;20040;-70
2023/09/24 00:05:54;;;;;;;0.22;0.22;;;9.70;99.90;;;;;;5058868;28;20039;-71
2023/09/24 00:08:20;;;;;;;0.30;0.30;;;9.80;99.90;;;;;;5056082;28;20446;-71
2023/09/24 00:10:52;;;;;;;0.30;0.30;;;9.80;99.90;;;;;;5064238;28;20040;-72
2023/09/24 00:13:18;;;;;;;0.30;0.30;;;9.70;99.90;;;;;;5063429;28;20104;-71
2023/09/24 00:15:44;;;;;;;0.22;0.22;;;9.70;99.90;;;;;;5060021;28;20032;-71
2023/09/24 00:18:10;;;;;;;0.30;0.30;;;9.80;99.90;;;;;;5063125;28;20059;-71
2023/09/24 00:20:36;;;;;;;0.32;0.32;;;9.80;99.90;;;;;;5065214;28;20413;-71
2023/09/24 00:23:02;;;;;;;0.40;0.40;;;9.80;99.90;;;;;;5063244;28;20066;-71
2023/09/24 00:25:28;;;;;;;0.30;0.30;;;9.80;99.90;;;;;;5063944;28;20028;-71
2023/09/24 00:27:54;;;;;;;0.30;0.30;;;9.80;99.90;;;;;;5064638;28;20048;-71
2023/09/24 00:30:20;;;;;;;0.40;0.40;;;9.80;99.90;;;;;;5049231;28;20036;-71
2023/09/24 00:32:46;;;;;;;0.30;0.30;;;9.80;99.90;;;;;;5066714;28;20478;-71
2023/09/24 00:35:11;;;;;;;0.40;0.40;;;9.80;99.90;;;;;;5061780;28;20047;-71
2023/09/24 00:37:37;;;;;;;0.40;0.40;;;9.80;99.90;;;;;;5042425;28;20113;-71
2023/09/24 00:40:05;;;;;;;0.20;0.20;;;9.80;99.90;;;;;;5062181;28;20495;-71
2023/09/24 00:42:32;;;;;;;0.40;0.40;;;9.80;99.90;;;;;;5062560;28;20041;-71
2023/09/24 00:44:59;;;;;;;0.40;0.40;;;9.80;99.90;;;;;;5061957;28;20047;-71
2023/09/24 00:47:25;;;;;;;0.30;0.30;;;9.80;99.90;;;;;;5071769;28;20051;-71
2023/09/24 00:49:54;;;;;;;0.65;0.65;;;9.70;99.90;;;;;;5061175;28;20131;-71
2023/09/24 00:52:20;;;;;;;0.40;0.40;;;9.70;99.90;;;;;;5043843;28;20162;-71
2023/09/24 00:54:47;;;;;;;0.40;0.40;;;9.70;99.90;;;;;;5052404;28;20115;-71
2023/09/24 00:57:13;;;;;;;0.40;0.40;;;9.70;99.90;;;;;;5055273;28;20040;-71
2023/09/24 00:59:39;;;;;;;0.52;0.52;;;9.70;99.90;;;;;;5069631;28;20034;-73
2023/09/24 01:02:07;;;;;;;0.30;0.30;;;9.70;99.90;;;;;;5063461;28;20056;-71
2023/09/24 01:04:35;;;;;;;;;;;9.70;99.90;;;;;;5060820;28;20040;-72
2023/09/24 01:07:02;;;;;;;0.30;0.30;;;9.70;99.90;;;;;;5065327;28;19959;-71
2023/09/24 01:09:28;;;;;;;0.30;0.30;;;9.70;99.90;;;;;;5038690;28;20032;-72
2023/09/24 01:11:54;;;;;;;0.30;0.30;;;9.70;99.90;;;;;;5058910;28;20071;-71
2023/09/24 01:14:20;;;;;;;0.30;0.30;;;9.70;99.90;;;;;;5064380;28;20036;-71
2023/09/24 01:16:46;;;;;;;0.30;0.30;;;9.70;99.90;;;;;;5062755;28;20040;-71
2023/09/24 01:19:12;;;;;;;0.30;0.30;;;9.70;99.90;;;;;;5054605;28;20040;-72
2023/09/24 01:21:38;;;;;;;0.40;0.40;;;9.80;99.90;;;;;;5065425;28;20608;-71
2023/09/24 01:24:06;;;;;;;0.32;0.32;;;9.80;99.90;;;;;;5063233;28;20032;-72
2023/09/24 01:26:32;;;;;;;0.30;0.30;;;9.80;99.90;;;;;;5041557;28;20040;-71
2023/09/24 01:28:58;;;;;;;0.40;0.40;;;9.80;99.90;;;;;;5055913;28;20055;-71
2023/09/24 01:31:26;;;;;;;0.40;0.40;;;9.80;99.90;;;;;;5076308;28;20040;-71
2023/09/24 01:33:52;;;;;;;0.32;0.32;;;9.80;99.90;;;;;;5072311;28;20111;-71
2023/09/24 01:36:20;;;;;;;0.60;0.60;;;9.80;99.90;;;;;;5072217;28;20063;-71
2023/09/24 01:38:47;;;;;;;0.40;0.40;;;9.80;99.90;;;;;;5077704;28;20035;-71
2023/09/24 01:41:13;;;;;;;0.32;0.32;;;9.80;99.90;;;;;;5063839;28;20377;-70
2023/09/24 01:43:42;;;;;;;0.32;0.32;;;9.80;99.90;;;;;;5056636;28;20112;-71
2023/09/24 01:46:09;;;;;;;0.40;0.40;;;9.80;99.90;;;;;;5061276;28;20761;-71
2023/09/24 01:48:35;;;;;;;0.30;0.30;;;9.80;99.90;;;;;;5060910;28;20032;-72
2023/09/24 01:51:10;;;;;;;0.30;0.30;;;9.80;99.90;;;;;;5059389;28;20043;-71
2023/09/24 01:53:38;;;;;;;0.40;0.40;;;9.80;99.90;;;;;;5042135;28;20046;-70
2023/09/24 01:56:04;;;;;;;0.65;0.65;;;9.80;99.90;;;;;;5060064;28;20040;-71
2023/09/24 01:58:31;;;;;;;0.30;0.30;;;9.80;99.90;;;;;;5062334;28;20048;-71
2023/09/24 02:00:56;;;;;;;0.30;0.30;;;9.80;99.90;;;;;;5052496;28;20059;-71
2023/09/24 02:03:22;;;;;;;0.30;0.30;;;9.80;99.90;;;;;;5050190;28;20044;-71
2023/09/24 02:05:48;;;;;;;0.32;0.32;;;9.80;99.90;;;;;;5038305;28;20040;-71
2023/09/24 02:08:15;;;;;;;0.40;0.40;;;9.80;99.90;;;;;;5046393;28;20071;-71
2023/09/24 02:10:41;;;;;;;0.40;0.40;;;9.80;99.90;;;;;;5039520;28;20051;-72
2023/09/24 02:13:08;;;;;;;0.32;0.32;;;9.80;99.90;;;;;;5039373;28;20446;-72
2023/09/24 02:15:34;;;;;;;0.30;0.30;;;9.70;99.90;;;;;;5042296;28;20044;-71
2023/09/24 02:18:00;;;;;;;0.30;0.30;;;9.60;99.90;;;;;;5057779;28;20068;-72
2023/09/24 02:20:31;;;;;;;0.30;0.30;;;9.60;99.90;;;;;;5039488;28;20032;-72
2023/09/24 02:23:01;;;;;;;0.45;0.45;;;9.50;99.90;;;;;;5065775;28;20040;-73
2023/09/24 02:25:28;;;;;;;0.30;0.30;;;9.50;99.90;;;;;;5042009;28;20196;-72
2023/09/24 02:27:55;;;;;;;0.30;0.30;;;9.50;99.90;;;;;;5062768;28;20036;-72
2023/09/24 02:30:24;;;;;;;0.75;0.75;;;9.40;99.90;;;;;;5060384;28;20036;-72
2023/09/24 02:32:50;;;;;;;0.30;0.30;;;9.50;99.90;;;;;;5058015;28;20048;-71
2023/09/24 02:35:16;;;;;;;0.40;0.40;;;9.50;99.90;;;;;;5059004;28;20394;-72
2023/09/24 02:37:47;;;;;;;0.85;0.85;;;9.40;99.90;;;;;;5038660;28;20037;-71
2023/09/24 02:40:17;;;;;;;0.30;0.30;;;9.40;99.90;;;;;;5065174;28;20490;-72
2023/09/24 02:42:46;;;;;;;0.30;0.30;;;9.40;99.90;;;;;;5059509;28;20044;-72
2023/09/24 02:45:15;;;;;;;0.40;0.40;;;9.40;99.90;;;;;;5053070;28;20040;-71
2023/09/24 02:47:42;;;;;;;0.30;0.30;;;9.40;99.90;;;;;;5065540;28;20046;-71
2023/09/24 02:50:12;;;;;;;0.30;0.30;;;9.40;99.90;;;;;;5059866;28;20032;-72
2023/09/24 02:52:42;;;;;;;0.30;0.30;;;9.40;99.90;;;;;;5059016;28;20148;-71
2023/09/24 02:55:13;;;;;;;0.22;0.22;;;9.40;99.90;;;;;;5061010;28;20487;-71
2023/09/24 02:57:51;;;;;;;0.40;0.40;;;9.30;99.90;;;;;;5066570;28;20036;-71
2023/09/24 03:00:30;;;;;;;;;;;9.20;99.90;;;;;;5037069;28;20210;-72
2023/09/24 03:03:00;;;;;;;0.45;0.45;;;9.20;99.90;;;;;;5034314;28;19920;-72
2023/09/24 03:05:28;;;;;;;0.30;0.30;;;9.20;99.90;;;;;;5047554;28;20041;-71
2023/09/24 03:07:55;;;;;;;0.57;0.57;;;9.20;99.90;;;;;;5060318;28;20048;-72
2023/09/24 03:10:22;;;;;;;0.40;0.40;;;9.20;99.90;;;;;;5051872;28;20516;-72
2023/09/24 03:12:49;;;;;;;0.75;0.70;;;9.20;99.90;;;;;;5035963;28;20510;-71
2023/09/24 03:15:16;;;;;;;0.40;0.40;;;9.20;99.90;;;;;;5051481;28;20037;-71
2023/09/24 03:17:43;;;;;;;0.43;0.43;;;9.20;99.90;;;;;;5054073;28;20147;-71
2023/09/24 03:20:22;;;;;;;0.32;0.32;;;9.20;99.90;;;;;;5064751;28;20052;-71
2023/09/24 03:22:49;;;;;;;0.55;0.55;;;9.30;99.90;;;;;;5060324;28;20040;-71
2023/09/24 03:25:20;;;;;;;0.32;0.32;;;9.30;99.90;;;;;;5057366;28;20123;-71
2023/09/24 03:27:48;;;;;;;0.35;0.35;;;9.30;99.90;;;;;;5059519;28;20092;-71
2023/09/24 03:30:17;;;;;;;0.37;0.37;;;9.30;99.90;;;;;;5065669;28;20070;-71
2023/09/24 03:32:52;;;;;;;0.30;0.30;;;9.30;99.90;;;;;;5046754;28;20280;-71
2023/09/24 03:35:22;;;;;;;0.85;0.85;;;9.40;99.90;;;;;;5039650;28;20501;-71
2023/09/24 03:37:49;;;;;;;0.40;0.40;;;9.40;99.90;;;;;;5065185;28;20036;-70
2023/09/24 03:40:17;;;;;;;0.35;0.35;;;9.50;99.90;;;;;;5062796;28;20162;-72
2023/09/24 03:42:44;;;;;;;0.40;0.40;;;9.40;99.90;;;;;;5053157;28;20049;-71
2023/09/24 03:45:11;;;;;;;0.40;0.40;;;9.50;99.90;;;;;;5069201;28;20040;-71
2023/09/24 03:47:38;;;;;;;0.50;0.50;;;9.60;99.90;;;;;;5059548;28;20683;-71
2023/09/24 03:50:05;;;;;;;0.60;0.60;;;9.50;99.90;;;;;;5060732;28;20644;-70
2023/09/24 03:52:31;;;;;;;0.40;0.40;;;9.60;99.90;;;;;;5065603;28;20555;-71
2023/09/24 03:54:59;;;;;;;0.30;0.30;;;9.60;99.90;;;;;;5070516;28;20036;-71
2023/09/24 03:57:27;;;;;;;0.45;0.45;;;9.60;99.90;;;;;;5070155;28;20529;-71
2023/09/24 03:59:54;;;;;;;0.57;0.57;;;9.70;99.90;;;;;;5054568;28;20548;-71
2023/09/24 04:02:20;;;;;;;0.68;0.50;;;9.70;99.90;;;;;;5037305;28;20063;-71
2023/09/24 04:04:46;;;;;;;0.38;0.38;;;9.60;99.90;;;;;;5062961;28;20633;-71
2023/09/24 04:07:12;;;;;;;0.30;0.30;;;9.70;99.90;;;;;;5048645;28;20039;-71
2023/09/24 04:09:38;;;;;;;0.30;0.30;;;9.60;99.90;;;;;;5058401;28;20051;-71
2023/09/24 04:12:04;;;;;;;0.30;0.30;;;9.60;99.90;;;;;;5065388;28;20044;-71
2023/09/24 04:14:30;;;;;;;0.40;0.40;;;9.60;99.90;;;;;;5037522;28;20071;-71
2023/09/24 04:16:56;;;;;;;0.40;0.40;;;9.60;99.90;;;;;;5064078;28;20141;-71
2023/09/24 04:19:24;;;;;;;0.40;0.40;;;9.50;99.90;;;;;;5070906;28;20409;-71
2023/09/24 04:21:51;;;;;;;0.40;0.40;;;9.60;99.90;;;;;;5064755;28;20028;-71
2023/09/24 04:24:18;;;;;;;0.32;0.32;;;9.60;99.90;;;;;;5043419;28;20079;-71
2023/09/24 04:26:45;;;;;;;0.40;0.40;;;9.50;99.90;;;;;;5062410;28;20036;-71
2023/09/24 04:29:11;;;;;;;0.50;0.50;;;9.50;99.90;;;;;;5051710;28;20090;-70
2023/09/24 04:31:37;;;;;;;0.40;0.40;;;9.50;99.90;;;;;;5058420;28;20036;-71
2023/09/24 04:34:03;;;;;;;0.40;0.40;;;9.50;99.90;;;;;;5055075;28;20517;-71
2023/09/24 04:36:29;;;;;;;0.40;0.40;;;9.50;99.90;;;;;;5056561;28;20460;-73
2023/09/24 04:38:55;;;;;;;0.40;0.40;;;9.40;99.90;;;;;;5061412;28;20044;-73
2023/09/24 04:41:21;;;;;;;0.50;0.50;;;9.30;99.90;;;;;;5056189;28;20414;-73
2023/09/24 04:43:47;;;;;;;0.30;0.30;;;9.20;99.90;;;;;;5064136;28;20506;-73
2023/09/24 04:46:16;;;;;;;0.30;0.30;;;9.20;99.90;;;;;;5057622;28;20036;-73
2023/09/24 04:48:42;;;;;;;0.40;0.40;;;9.10;99.90;;;;;;5057068;28;20044;-73
2023/09/24 04:51:07;;;;;;;0.30;0.30;;;9.10;99.90;;;;;;5059904;28;20063;-73
2023/09/24 04:53:33;;;;;;;0.73;0.50;;;9.10;99.90;;;;;;5054865;28;20083;-73
2023/09/24 04:55:59;;;;;;;0.30;0.30;;;9.00;99.90;;;;;;5059205;28;20651;-73
2023/09/24 04:58:25;;;;;;;0.32;0.32;;;9.00;99.90;;;;;;5044241;28;20078;-73
2023/09/24 05:00:50;;;;;;;0.30;0.30;;;8.90;99.90;;;;;;5067565;28;20717;-72
2023/09/24 05:03:17;;;;;;;0.38;0.38;;;8.90;99.90;;;;;;5063819;28;20043;-73
2023/09/24 05:05:43;;;;;;;0.30;0.30;;;8.90;99.90;;;;;;5052132;28;20052;-72
2023/09/24 05:08:10;;;;;;;0.30;0.30;;;8.90;99.90;;;;;;5047265;28;20124;-72
2023/09/24 05:10:39;;;;;;;0.40;0.40;;;8.80;99.90;;;;;;5056260;28;20041;-73
2023/09/24 05:13:05;;;;;;;0.45;0.45;;;8.80;99.90;;;;;;5066480;28;20043;-72
2023/09/24 05:15:31;;;;;;;0.40;0.40;;;8.90;99.90;;;;;;5061039;28;20470;-73
2023/09/24 05:17:56;;;;;;;0.20;0.20;;;8.90;99.90;;;;;;5075337;28;20055;-73
2023/09/24 05:20:22;;;;;;;0.50;0.50;;;9.00;99.90;;;;;;5065026;28;20035;-73
2023/09/24 05:22:48;;;;;;;0.75;0.75;;;9.00;99.90;;;;;;5039850;28;20170;-72
2023/09/24 05:25:14;;;;;;;0.32;0.32;;;9.00;99.90;;;;;;5061599;28;20040;-73
2023/09/24 05:27:40;;;;;;;0.50;0.50;;;9.10;99.90;;;;;;5059473;28;20032;-73
2023/09/24 05:30:08;;;;;;;0.57;0.57;;;9.10;99.90;;;;;;5063437;28;20110;-73
2023/09/24 05:32:34;;;;;;;0.40;0.40;;;9.10;99.90;;;;;;5054682;28;20402;-73
2023/09/24 05:35:00;;;;;;;0.52;0.52;;;9.20;99.90;;;;;;5056277;28;20040;-73
2023/09/24 05:37:26;;;;;;;0.40;0.40;;;9.20;99.90;;;;;;5061011;28;20458;-73
2023/09/24 05:39:51;;;;;;;0.40;0.40;;;9.30;99.90;;;;;;5056033;28;20040;-73
2023/09/24 05:42:17;;;;;;;0.40;0.40;;;9.30;99.90;;;;;;5064022;28;20120;-73
2023/09/24 05:44:43;;;;;;;0.50;0.50;;;9.30;99.90;;;;;;5054765;28;20036;-73
2023/09/24 05:47:10;;;;;;;0.40;0.40;;;9.40;99.90;;;;;;5056816;28;20028;-73
2023/09/24 05:49:36;;;;;;;0.30;0.30;;;9.40;99.90;;;;;;5061587;28;20039;-73
2023/09/24 05:52:03;;;;;;;0.30;0.30;;;9.50;99.90;;;;;;5062445;28;20048;-72
2023/09/24 05:54:28;;;;;;;0.32;0.32;;;9.50;99.90;;;;;;5067282;28;20040;-73
2023/09/24 05:56:54;;;;;;;0.40;0.40;;;9.60;99.90;;;;;;5067095;28;20508;-72
2023/09/24 05:59:20;;;;;;;0.57;0.57;;;9.60;99.90;;;;;;5074232;28;20067;-73
2023/09/24 06:01:46;;;;;;;0.40;0.40;;;9.70;99.90;;;;;;5068382;28;20041;-73
2023/09/24 06:04:12;;;;;;;0.50;0.50;;;9.80;99.90;;;;;;5072451;28;20052;-73
2023/09/24 06:06:39;;;;;;;0.40;0.40;;;9.90;99.90;;;;;;5059772;28;20486;-72
2023/09/24 06:09:09;;;;;;;0.40;0.40;;;9.90;99.90;;;;;;5056188;28;20036;-73
2023/09/24 06:11:38;;;;;;;0.45;0.45;;;9.90;99.90;;;;;;5057462;28;20052;-73
2023/09/24 06:14:13;;;;;;;0.45;0.45;;;10.10;99.90;;;;;;5055456;28;20036;-73
2023/09/24 06:16:39;;;;;;;0.70;0.70;;;10.10;99.90;;;;;;5044154;28;20161;-73
2023/09/24 06:19:05;;;;;;;0.70;0.70;;;10.20;99.90;;;;;;5061842;28;20131;-73
2023/09/24 06:21:31;;;;;;;0.30;0.30;;;10.30;99.90;;;;;;5053061;28;20573;-73
2023/09/24 06:23:57;;;;;;;0.60;0.60;;;10.30;99.90;;;;;;5061330;28;20050;-73
2023/09/24 06:26:24;;;;;;;0.43;0.43;;;10.30;99.90;;;;;;5054724;28;20049;-73
2023/09/24 06:28:50;;;;;;;0.68;0.68;;;10.40;99.90;;;;;;5057491;28;20043;-74
2023/09/24 06:31:16;;;;;;;0.55;0.55;;;10.40;99.90;;;;;;5069856;28;20048;-72
2023/09/24 06:33:42;;;;;;;0.45;0.45;;;10.40;99.90;;;;;;5054764;28;20583;-72
2023/09/24 06:36:09;;;;;;;0.30;0.30;;;10.50;99.90;;;;;;5067646;28;20170;-72
2023/09/24 06:38:36;;;;;;;0.30;0.30;;;10.50;99.90;;;;;;5058403;28;20041;-72
2023/09/24 06:41:03;;;;;;;0.40;0.40;;;10.60;99.90;;;;;;5056242;28;20075;-71
2023/09/24 06:43:29;;;;;;;0.77;0.77;;;10.70;99.90;;;;;;5051554;28;20050;-72
2023/09/24 06:45:56;;;;;;;0.40;0.40;;;10.70;99.90;;;;;;5064438;28;20126;-72
2023/09/24 06:48:25;;;;;;;0.40;0.40;;;10.80;99.90;;;;;;5078282;28;20032;-73
2023/09/24 06:50:53;;;;;;;0.55;0.55;;;11.00;99.90;;;;;;5060457;28;20059;-72
2023/09/24 06:53:19;;;;;;;0.88;0.88;;;11.00;99.90;;;;;;5072815;28;20090;-73
2023/09/24 06:55:45;;;;;;;0.60;0.60;;;11.20;99.90;;;;;;5067993;28;20477;-72
2023/09/24 06:58:13;;;;;;;3.40;0.90;;;11.30;99.90;;;;;;5061886;28;20382;-72
2023/09/24 07:00:38;;;;;;;0.60;0.60;;;11.40;99.90;;;;;;5063757;28;20047;-72
2023/09/24 07:03:05;;;;;;;0.70;0.70;;;11.50;99.90;;;;;;5061346;28;20043;-72
2023/09/24 07:05:31;;;;;;;0.88;0.88;;;11.60;99.90;;;;;;5059326;28;20044;-72
2023/09/24 07:07:57;;;;;;;1.75;1.65;;;11.60;99.90;;;;;;5057543;28;20039;-72
2023/09/24 07:10:24;;;;;;;0.50;0.50;;;11.60;99.90;;;;;;5066289;28;20027;-72
2023/09/24 07:12:51;;;;;;;0.60;0.50;;;11.70;99.90;;;;;;5062252;28;20123;-72
2023/09/24 07:15:17;;;;;;;1.08;1.08;;;11.70;99.90;;;;;;5071353;28;20032;-72
2023/09/24 07:17:43;;;;;;;1.30;1.20;;;11.80;99.90;;;;;;5059668;28;20043;-72
2023/09/24 07:20:09;;;;;;;0.63;0.63;;;11.80;99.90;;;;;;5046088;28;20055;-72
2023/09/24 07:22:35;;;;;;;0.50;0.50;;;11.80;99.90;;;;;;5059621;28;20048;-72
2023/09/24 07:25:01;;;;;;;0.38;0.38;;;11.80;99.90;;;;;;5062444;28;20048;-72
2023/09/24 07:27:27;;;;;;;0.40;0.40;;;11.90;99.90;;;;;;5065065;28;20036;-72
2023/09/24 07:29:52;;;;;;;0.40;0.40;;;11.90;99.90;;;;;;5059265;28;20124;-72
2023/09/24 07:32:18;;;;;;;0.32;0.32;;;11.90;99.90;;;;;;5066387;28;20062;-72
2023/09/24 07:34:47;;;;;;;0.60;0.60;;;12.00;99.90;;;;;;5050042;28;20067;-73
2023/09/24 07:37:16;;;;;;;0.55;0.55;;;12.00;99.90;;;;;;5070801;28;20489;-73
2023/09/24 07:39:42;;;;;;;0.50;0.50;;;12.10;99.90;;;;;;5067086;28;20068;-72
2023/09/24 07:42:08;;;;;;;0.75;0.75;;;12.10;99.90;;;;;;5065074;28;20067;-72
2023/09/24 07:44:34;;;;;;;0.40;0.40;;;12.20;99.90;;;;;;5067326;28;20049;-72
2023/09/24 07:47:00;;;;;;;0.60;0.60;;;12.20;99.90;;;;;;5064420;28;20111;-72
2023/09/24 07:49:26;;;;;;;0.40;0.40;;;12.30;99.90;;;;;;5069727;28;20143;-72
2023/09/24 07:51:51;;;;;;;0.85;0.85;;;12.40;99.90;;;;;;5061585;28;20115;-72
2023/09/24 07:54:17;;;;;;;0.82;0.82;;;12.50;99.90;;;;;;5061708;28;20050;-71
2023/09/24 07:56:43;;;;;;;0.73;0.73;;;12.60;99.90;;;;;;5063359;28;20039;-73
2023/09/24 07:59:10;;;;;;;0.60;0.60;;;12.70;99.90;;;;;;5062276;28;20051;-72
2023/09/24 08:01:36;;;;;;;0.50;0.50;;;12.80;99.90;;;;;;5047432;28;20482;-71
2023/09/24 08:04:02;;;;;;;0.55;0.55;;;12.90;99.90;;;;;;5070118;28;20093;-73
2023/09/24 08:06:28;;;;;;;0.63;0.63;;;13.10;99.90;;;;;;5065239;28;20039;-73
2023/09/24 08:08:58;;;;;;;0.63;0.63;;;13.20;99.90;;;;;;5060948;28;20119;-72
2023/09/24 08:11:24;;;;;;;0.50;0.50;;;13.30;99.90;;;;;;5064783;28;20067;-72
2023/09/24 08:13:50;;;;;;;1.00;0.90;;;13.40;99.90;;;;;;5081855;28;20059;-72
2023/09/24 08:16:16;;;;;;;0.82;0.82;;;13.60;99.90;;;;;;5079364;28;20041;-72
2023/09/24 08:18:44;;;;;;;0.60;0.60;;;13.70;99.90;;;;;;5058936;28;20042;-72
2023/09/24 08:21:09;;;;;;;1.30;0.60;;;13.90;99.90;;;;;;5062049;28;20044;-72
2023/09/24 08:23:35;;;;;;;0.60;0.60;;;14.00;99.90;;;;;;5058998;28;20039;-72
2023/09/24 08:26:01;;;;;;;1.25;0.73;;;14.10;99.90;;;;;;5057699;28;20398;-73
2023/09/24 08:28:27;;;;;;;0.73;0.73;;;14.20;99.90;;;;;;5055913;28;20449;-72
2023/09/24 08:30:55;;;;;;;0.82;0.82;;;14.30;99.90;;;;;;5060295;28;20044;-72
2023/09/24 08:33:21;;;;;;;;;;;14.50;99.90;;;;;;5058410;28;20158;-72
2023/09/24 08:35:47;;;;;;;0.82;0.60;;;14.60;99.90;;;;;;5057355;28;20011;-72
2023/09/24 08:38:13;;;;;;;0.47;0.47;;;14.80;99.90;;;;;;5063287;28;20056;-73
2023/09/24 08:40:39;;;;;;;0.50;0.50;;;15.00;99.90;;;;;;5069400;28;20036;-73
2023/09/24 08:43:09;;;;;;;0.77;0.77;;;15.10;99.90;;;;;;5072152;28;20161;-73
2023/09/24 08:45:35;;;;;;;0.50;0.50;;;15.20;99.90;;;;;;5058912;28;20121;-73
2023/09/24 08:48:07;;;;;;;0.50;0.50;;;15.30;99.90;;;;;;5059066;28;20500;-73
2023/09/24 08:50:37;;;;;;;0.40;0.40;;;15.40;99.90;;;;;;5058779;28;20042;-73
2023/09/24 08:53:07;;;;;;;0.73;0.73;;;15.50;99.90;;;;;;5069070;28;20490;-75
2023/09/24 08:55:33;;;;;;;0.95;0.95;;;15.60;99.90;;;;;;5046790;28;20040;-74
2023/09/24 08:57:59;;;;;;;0.65;0.65;;;15.70;99.90;;;;;;5051065;28;20119;-73
2023/09/24 09:00:25;;;;;;;0.73;0.68;;;15.90;99.90;;;;;;5058782;28;20581;-73
2023/09/24 09:02:50;;;;;;;2.05;1.25;;;16.00;99.90;;;;;;5039138;28;20067;-73
2023/09/24 09:05:22;;;;;;;1.08;0.98;;;16.10;99.90;;;;;;5032165;28;20080;-73
2023/09/24 09:07:59;;;;;;;0.50;0.50;;;16.20;99.90;;;;;;5030624;28;20126;-73
2023/09/24 09:10:34;;;;;;;0.65;0.50;;;16.30;99.90;;;;;;5041534;28;20498;-73
2023/09/24 09:13:09;;;;;;;0.88;0.88;;;16.50;99.90;;;;;;5049825;28;20048;-73
2023/09/24 09:15:40;;;;;;;0.70;0.70;;;16.60;99.90;;;;;;5050419;28;20061;-73
2023/09/24 09:18:20;;;;;;;0.65;0.65;;;16.70;99.90;;;;;;5044861;28;20033;-73
2023/09/24 09:20:49;;;;;;;0.90;0.73;;;16.90;99.90;;;;;;5040344;28;20048;-73
2023/09/24 09:23:28;;;;;;;0.35;0.35;;;17.20;99.90;;;;;;5038876;28;20067;-75
2023/09/24 09:25:54;;;;;;;0.40;0.40;;;17.30;99.90;;;;;;5035586;28;20471;-74
2023/09/24 09:28:25;;;;;;;0.40;0.40;;;17.50;99.90;;;;;;5046213;28;20039;-74
2023/09/24 09:31:05;;;;;;;0.50;0.50;;;17.60;99.90;;;;;;5031267;28;20052;-74
2023/09/24 09:33:41;;;;;;;0.47;0.47;;;17.70;99.90;;;;;;5034898;28;20550;-74
2023/09/24 09:36:21;;;;;;;0.47;0.47;;;17.80;99.90;;;;;;5038514;28;20041;-74
2023/09/24 09:38:47;;;;;;;0.60;0.60;;;18.00;99.90;;;;;;5043461;28;20068;-74
2023/09/24 09:41:16;;;;;;;0.80;0.80;;;18.10;99.90;;;;;;5037763;28;20068;-73
2023/09/24 09:43:44;;;;;;;0.30;0.30;;;18.10;99.90;;;;;;5038183;28;20044;-73
2023/09/24 09:46:12;;;;;;;0.55;0.55;;;18.20;99.90;;;;;;5055340;28;20067;-73
2023/09/24 09:48:40;;;;;;;2.63;1.67;;;18.20;99.90;;;;;;5037516;28;20033;-73
2023/09/24 09:51:06;;;;;;;;;;;18.30;99.90;;;;;;5055179;28;20731;-74
2023/09/24 09:53:35;;;;;;;0.67;0.67;;;18.40;99.90;;;;;;5029380;28;19916;-74
2023/09/24 09:56:01;;;;;;;;;;;18.60;99.90;;;;;;5052591;28;20283;-74
2023/09/24 09:58:29;;;;;;;0.50;0.40;;;18.60;99.90;;;;;;5024262;28;19974;-74
2023/09/24 10:00:55;;;;;;;0.50;0.50;;;18.70;99.90;;;;;;5047350;28;20052;-73
2023/09/24 10:03:22;;;;;;;0.30;0.30;;;18.80;99.90;;;;;;5059802;28;20097;-74
2023/09/24 10:05:49;;;;;;;0.30;0.30;;;18.90;99.90;;;;;;5037374;28;20036;-74
2023/09/24 10:08:34;;;;;;;0.77;0.77;;;19.00;99.90;;;;;;5052215;28;20465;-74
2023/09/24 10:11:01;;;;;;;0.90;0.60;;;19.20;99.90;;;;;;5054444;28;20044;-74
2023/09/24 10:13:49;;;;;;;0.50;0.50;;;19.30;99.90;;;;;;5045366;28;20044;-74
2023/09/24 10:16:41;;;;;;;0.30;0.30;;;19.30;99.90;;;;;;5066292;28;20541;-74
2023/09/24 10:19:12;;;;;;;0.47;0.47;;;19.30;99.90;;;;;;5058691;28;20073;-74
2023/09/24 10:21:40;;;;;;;0.60;0.60;;;19.40;99.90;;;;;;5065065;28;20051;-74
2023/09/24 10:24:14;;;;;;;0.80;0.60;;;19.40;99.90;;;;;;5061494;28;20131;-75
2023/09/24 10:26:50;;;;;;;0.30;0.30;;;19.50;99.90;;;;;;5047876;28;20386;-74
2023/09/24 10:29:19;;;;;;;0.35;0.35;;;19.50;99.90;;;;;;5063709;28;20043;-74
2023/09/24 10:32:10;;;;;;;0.47;0.47;;;19.50;99.90;;;;;;5053279;28;20044;-75
2023/09/24 10:34:54;;;;;;;0.43;0.43;;;19.50;99.90;;;;;;5054432;28;20143;-74
2023/09/24 10:37:20;;;;;;;0.80;0.80;;;19.60;99.90;;;;;;5059257;28;20093;-74
2023/09/24 10:39:59;;;;;;;0.52;0.52;;;19.60;99.90;;;;;;5052452;28;20047;-73
2023/09/24 10:42:25;;;;;;;0.32;0.32;;;19.70;99.90;;;;;;5055197;28;20486;-74
2023/09/24 10:45:06;;;;;;;0.90;0.47;;;19.80;99.90;;;;;;5050914;28;20522;-74
2023/09/24 10:47:42;;;;;;;0.45;0.45;;;19.90;99.90;;;;;;5053183;28;20089;-72
2023/09/24 10:50:14;;;;;;;0.63;0.63;;;19.90;99.90;;;;;;5051960;28;20044;-72
2023/09/24 10:52:47;;;;;;;0.85;0.85;;;20.00;99.90;;;;;;5061160;28;20036;-72
2023/09/24 10:55:13;;;;;;;0.32;0.32;;;20.00;99.90;;;;;;5055790;28;20103;-72
2023/09/24 10:57:47;;;;;;;0.60;0.60;;;20.10;99.90;;;;;;5063890;28;20040;-73
2023/09/24 11:00:23;;;;;;;0.20;0.20;;;20.30;99.90;;;;;;5053799;28;20083;-73
2023/09/24 11:02:54;;;;;;;0.40;0.40;;;20.50;99.90;;;;;;5028232;28;20068;-72
2023/09/24 11:05:20;;;;;;;0.38;0.38;;;20.50;99.90;;;;;;5028701;28;20048;-73
2023/09/24 11:07:46;;;;;;;0.40;0.40;;;20.60;99.90;;;;;;5029576;28;20033;-73
2023/09/24 11:10:20;;;;;;;0.32;0.32;;;20.70;99.90;;;;;;5028278;28;20033;-73
2023/09/24 11:12:48;;;;;;;0.40;0.40;;;20.70;99.90;;;;;;5030390;28;20052;-74
2023/09/24 11:15:14;;;;;;;0.45;0.45;;;20.80;99.90;;;;;;5023484;28;20122;-74
2023/09/24 11:17:41;;;;;;;0.30;0.30;;;20.90;99.90;;;;;;5037883;28;20068;-74
2023/09/24 11:20:09;;;;;;;0.45;0.45;;;20.90;99.90;;;;;;5033361;28;20042;-73
2023/09/24 11:22:35;;;;;;;1.55;0.93;;;20.90;99.90;;;;;;5041228;28;20598;-73
2023/09/24 11:25:12;;;;;;;0.57;0.57;;;20.90;99.90;;;;;;5034102;28;20115;-73
2023/09/24 11:27:55;;;;;;;0.43;0.43;;;21.00;99.90;;;;;;5031494;28;20042;-72
2023/09/24 11:30:23;;;;;;;0.30;0.30;;;21.00;99.90;;;;;;5036674;28;20037;-73
2023/09/24 11:32:52;;;;;;;0.50;0.50;;;21.10;99.90;;;;;;5026124;28;20111;-72
2023/09/24 11:35:20;;;;;;;0.30;0.30;;;21.10;99.90;;;;;;5028978;28;20499;-73
2023/09/24 11:37:52;;;;;;;0.30;0.30;;;21.20;99.90;;;;;;5030849;28;20067;-73
2023/09/24 11:40:25;;;;;;;0.30;0.30;;;21.30;99.90;;;;;;5031799;28;20049;-73
2023/09/24 11:42:53;;;;;;;0.30;0.30;;;21.40;99.90;;;;;;5032408;28;20065;-73
2023/09/24 11:45:42;;;;;;;0.55;0.55;;;21.40;99.90;;;;;;5027633;28;20128;-73
2023/09/24 11:48:13;;;;;;;0.30;0.30;;;21.40;99.90;;;;;;5036962;28;20053;-73
2023/09/24 11:50:41;;;;;;;0.60;0.60;;;21.50;99.90;;;;;;5033972;28;20049;-73
2023/09/24 11:53:08;;;;;;;0.30;0.30;;;21.50;99.90;;;;;;5040551;28;20041;-73
2023/09/24 11:55:34;;;;;;;0.57;0.57;;;21.40;99.90;;;;;;5038201;28;20097;-73
2023/09/24 11:58:00;;;;;;;0.40;0.40;;;21.40;99.90;;;;;;5037837;28;20124;-73
2023/09/24 12:00:26;;;;;;;0.63;0.63;;;21.40;99.90;;;;;;5035760;28;20071;-73
2023/09/24 12:02:51;;;;;;;0.57;0.45;;;21.40;99.90;;;;;;5046669;28;20037;-73
2023/09/24 12:05:17;;;;;;;0.30;0.30;;;21.40;99.90;;;;;;5057838;28;20502;-73
2023/09/24 12:07:43;;;;;;;0.30;0.30;;;21.40;99.90;;;;;;5062513;28;20490;-73
2023/09/24 12:10:09;;;;;;;0.20;0.20;;;21.40;99.90;;;;;;5061823;28;20037;-73
2023/09/24 12:12:34;;;;;;;0.40;0.40;;;21.40;99.90;;;;;;5058966;28;20029;-73
2023/09/24 12:15:01;;;;;;;1.20;0.47;;;21.40;99.90;;;;;;5056720;28;20049;-73
2023/09/24 12:17:27;;;;;;;0.43;0.43;;;21.40;99.90;;;;;;5056077;28;20055;-72
2023/09/24 12:19:53;;;;;;;0.40;0.40;;;21.40;99.90;;;;;;5056918;28;20093;-72
2023/09/24 12:22:19;;;;;;;0.30;0.30;;;21.40;99.90;;;;;;5059587;28;20044;-72
2023/09/24 12:24:44;;;;;;;0.40;0.40;;;21.40;99.90;;;;;;5067738;28;20113;-72
2023/09/24 12:27:10;;;;;;;0.40;0.40;;;21.40;99.90;;;;;;5047246;28;20482;-72
2023/09/24 12:29:36;;;;;;;0.30;0.30;;;21.40;99.90;;;;;;5065239;28;20091;-72
2023/09/24 12:32:02;;;;;;;0.30;0.30;;;21.50;99.90;;;;;;5066332;28;20044;-72
2023/09/24 12:34:28;;;;;;;0.25;0.25;;;21.50;99.90;;;;;;5065918;28;20054;-72
2023/09/24 12:36:54;;;;;;;0.47;0.47;;;21.50;99.90;;;;;;5067336;28;20079;-72
2023/09/24 12:39:20;;;;;;;0.20;0.20;;;21.40;99.90;;;;;;5048675;28;20083;-73
2023/09/24 12:41:49;;;;;;;0.65;0.50;;;21.40;99.90;;;;;;5072267;28;20040;-73
2023/09/24 12:44:17;;;;;;;0.22;0.22;;;21.50;99.90;;;;;;5061063;28;20095;-72
2023/09/24 12:46:43;;;;;;;0.65;0.65;;;21.50;99.90;;;;;;5048722;28;20123;-72
2023/09/24 12:49:08;;;;;;;4.40;1.85;;;21.40;99.90;;;;;;5073538;28;20123;-72
2023/09/24 12:51:34;;;;;;;0.57;0.57;;;21.40;99.90;;;;;;5063765;28;20063;-72
2023/09/24 12:54:02;;;;;;;0.30;0.30;;;21.40;99.90;;;;;;5072297;28;20040;-72
2023/09/24 12:56:28;;;;;;;0.40;0.40;;;21.30;99.90;;;;;;5056418;28;20045;-72